Time;durP1;ratioP1;P1;durP2;ratioP2;P2;SDS_P1;SDS_P2;PMS_P1;PMS_P2;Temp;Humidity;BMP_temperature;BMP_pressure;BME280_temperature;BME280_humidity;BME280_pressure;Samples;Min_cycle;Max_cycle;Signal;HPM_P1;HPM_P2
2022/09/05 00:02:00;;;;;;;;;;;;;;;27.86;35.57;101403.16;5052574;28;1188;-35
2022/09/05 00:04:25;;;;;;;;;;;;;;;27.83;35.65;101398.13;5056118;28;1897;-35
2022/09/05 00:06:57;;;;;;;;;;;;;;;27.93;36.22;101402.47;5041487;28;947;-35
2022/09/05 00:09:41;;;;;;;;;;;;;;;27.86;35.83;101399.66;5044327;28;876;-36
2022/09/05 00:12:07;;;;;;;;;;;;;;;27.96;35.53;101392.16;5048020;28;1052;-36
2022/09/05 00:14:45;;;;;;;;;;;;;;;27.99;36.14;101399.09;5042243;28;1368;-36
2022/09/05 00:17:30;;;;;;;;;;;;;;;27.94;35.88;101401.47;5046662;28;1025;-36
2022/09/05 00:20:16;;;;;;;;;;;;;;;28.04;36.13;101398.56;5017100;28;1153;-36
2022/09/05 00:22:54;;;;;;;;;;;;;;;27.92;36.40;101390.00;5033045;28;1906;-36
2022/09/05 00:25:38;;;;;;;;;;;;;;;27.96;36.12;101391.34;5053023;28;985;-36
2022/09/05 00:28:10;;;;;;;;;;;;;;;27.83;35.64;101399.97;5052354;28;1135;-35
2022/09/05 00:30:41;;;;;;;;;;;;;;;27.89;35.85;101402.00;5045020;28;1422;-36
2022/09/05 00:33:21;;;;;;;;;;;;;;;27.95;35.72;101398.59;5045207;28;1227;-36
2022/09/05 00:35:47;;;;;;;;;;;;;;;27.91;35.14;101389.13;5053053;28;1002;-36
2022/09/05 00:38:22;;;;;;;;;;;;;;;27.97;35.35;101393.88;5041088;28;1245;-35
2022/09/05 00:40:50;;;;;;;;;;;;;;;27.99;35.29;101385.59;5045310;28;1020;-36
2022/09/05 00:43:23;;;;;;;;;;;;;;;28.01;35.48;101388.13;5036583;28;1902;-36
2022/09/05 00:45:54;;;;;;;;;;;;;;;28.02;35.42;101387.94;5046488;28;843;-36
2022/09/05 00:48:35;;;;;;;;;;;;;;;27.98;35.10;101384.72;5045917;28;1072;-36
2022/09/05 00:51:00;;;;;;;;;;;;;;;27.90;35.25;101390.16;5042875;28;1029;-35
2022/09/05 00:53:29;;;;;;;;;;;;;;;28.02;35.58;101387.09;5048073;28;1241;-36
2022/09/05 00:56:03;;;;;;;;;;;;;;;27.98;35.31;101383.88;5052130;28;1079;-35
2022/09/05 00:58:40;;;;;;;;;;;;;;;28.03;34.83;101388.78;5047553;28;1246;-36
2022/09/05 01:01:26;;;;;;;;;;;;;;;28.04;35.42;101393.16;5054997;28;1001;-36
2022/09/05 01:04:03;;;;;;;;;;;;;;;28.02;35.08;101390.63;5028694;28;1897;-36
2022/09/05 01:06:36;;;;;;;;;;;;;;;28.03;35.29;101392.31;5055121;28;1092;-36
2022/09/05 01:09:10;;;;;;;;;;;;;;;28.06;35.83;101389.25;5038060;28;1239;-36
2022/09/05 01:11:54;;;;;;;;;;;;;;;28.01;35.19;101388.94;5042872;28;1071;-36
2022/09/05 01:14:31;;;;;;;;;;;;;;;27.92;35.38;101387.28;5042870;28;997;-36
2022/09/05 01:17:00;;;;;;;;;;;;;;;27.94;35.09;101388.81;5053996;28;1005;-35
2022/09/05 01:19:37;;;;;;;;;;;;;;;28.01;35.26;101394.34;5051447;28;1060;-35
2022/09/05 01:22:15;;;;;;;;;;;;;;;27.97;35.61;101390.31;5054410;28;859;-36
2022/09/05 01:24:44;;;;;;;;;;;;;;;28.03;35.18;101386.91;5056765;28;988;-36
2022/09/05 01:27:28;;;;;;;;;;;;;;;28.02;35.02;101382.53;5054390;28;1380;-35
2022/09/05 01:30:12;;;;;;;;;;;;;;;27.98;35.47;101382.03;5051147;28;1099;-35
2022/09/05 01:32:46;;;;;;;;;;;;;;;27.97;35.26;101377.66;5052343;28;1021;-35
2022/09/05 01:35:27;;;;;;;;;;;;;;;27.96;35.48;101377.81;5044468;28;1013;-35
2022/09/05 01:38:06;;;;;;;;;;;;;;;27.90;35.56;101382.03;5056346;28;1048;-35
2022/09/05 01:40:51;;;;;;;;;;;;;;;27.90;34.97;101382.03;5052337;28;1170;-35
2022/09/05 01:43:16;;;;;;;;;;;;;;;28.02;35.50;101385.22;5054061;28;1952;-35
2022/09/05 01:45:44;;;;;;;;;;;;;;;28.05;35.74;101384.88;5048991;28;913;-35
2022/09/05 01:48:30;;;;;;;;;;;;;;;28.01;34.80;101378.13;5051762;28;1104;-35
2022/09/05 01:50:55;;;;;;;;;;;;;;;28.05;35.26;101376.75;5053202;28;1286;-35
2022/09/05 01:53:32;;;;;;;;;;;;;;;27.94;35.18;101371.72;5051993;28;1060;-36
2022/09/05 01:55:57;;;;;;;;;;;;;;;27.91;35.14;101374.78;5049656;28;1072;-35
2022/09/05 01:58:30;;;;;;;;;;;;;;;27.94;35.10;101371.72;5056417;28;1024;-35
2022/09/05 02:00:57;;;;;;;;;;;;;;;27.95;35.12;101370.72;5055666;28;1629;-35
2022/09/05 02:03:27;;;;;;;;;;;;;;;27.91;34.71;101372.91;5055481;28;1963;-35
2022/09/05 02:06:13;;;;;;;;;;;;;;;27.85;35.25;101370.91;5058400;28;1045;-35
2022/09/05 02:08:56;;;;;;;;;;;;;;;28.01;35.66;101377.28;5016774;28;1200;-35
2022/09/05 02:11:54;;;;;;;;;;;;;;;27.81;35.10;101369.56;5045709;28;994;-36
2022/09/05 02:14:38;;;;;;;;;;;;;;;27.90;35.17;101373.94;5008145;28;1066;-36
2022/09/05 02:17:18;;;;;;;;;;;;;;;27.82;35.23;101363.16;5052662;28;1021;-36
2022/09/05 02:19:46;;;;;;;;;;;;;;;28.00;35.07;101362.91;5049024;28;1088;-36
2022/09/05 02:22:13;;;;;;;;;;;;;;;28.01;35.09;101366.47;5040478;28;1092;-36
2022/09/05 02:24:39;;;;;;;;;;;;;;;27.93;34.84;101368.19;5050402;28;1028;-36
2022/09/05 02:27:10;;;;;;;;;;;;;;;28.04;35.91;101366.97;5050785;28;1123;-36
2022/09/05 02:29:38;;;;;;;;;;;;;;;28.08;35.59;101370.16;5051221;28;1150;-38
2022/09/05 02:32:10;;;;;;;;;;;;;;;28.10;35.10;101368.97;5044799;28;1029;-36
2022/09/05 02:34:38;;;;;;;;;;;;;;;28.05;35.13;101357.84;5053500;28;941;-36
2022/09/05 02:37:04;;;;;;;;;;;;;;;28.05;35.71;101363.25;5050338;28;1029;-36
2022/09/05 02:39:43;;;;;;;;;;;;;;;28.07;34.97;101360.38;5056389;28;1025;-36
2022/09/05 02:42:28;;;;;;;;;;;;;;;28.17;35.38;101370.97;5043878;28;1029;-36
2022/09/05 02:44:57;;;;;;;;;;;;;;;28.01;35.03;101364.59;5029975;28;1191;-35
2022/09/05 02:47:25;;;;;;;;;;;;;;;28.02;34.79;101368.16;5041819;28;1005;-36
2022/09/05 02:50:22;;;;;;;;;;;;;;;27.99;35.21;101358.53;5045783;28;963;-36
2022/09/05 02:52:48;;;;;;;;;;;;;;;28.03;35.30;101361.75;5015377;28;1190;-36
2022/09/05 02:55:33;;;;;;;;;;;;;;;28.07;35.55;101363.06;5047085;28;1149;-36
2022/09/05 02:58:06;;;;;;;;;;;;;;;28.10;35.38;101362.72;5045169;28;1337;-36
2022/09/05 03:00:42;;;;;;;;;;;;;;;28.13;35.55;101361.53;5051594;28;1231;-36
2022/09/05 03:03:08;;;;;;;;;;;;;;;28.15;35.26;101356.78;5055977;28;1960;-36
2022/09/05 03:05:37;;;;;;;;;;;;;;;28.02;35.12;101339.25;5043133;28;1143;-36
2022/09/05 03:08:18;;;;;;;;;;;;;;;28.02;35.45;101344.66;5056311;28;1139;-36
2022/09/05 03:11:02;;;;;;;;;;;;;;;27.21;35.03;101342.78;5040721;28;965;-46
2022/09/05 03:13:36;;;;;;;;;;;;;;;25.54;36.30;101339.44;5044521;28;1037;-37
2022/09/05 03:16:01;;;;;;;;;;;;;;;26.68;36.01;101343.88;5040687;28;1009;-37
2022/09/05 03:18:46;;;;;;;;;;;;;;;26.96;35.73;101340.88;5054072;28;1340;-38
2022/09/05 03:21:29;;;;;;;;;;;;;;;27.05;36.49;101341.75;5053517;28;980;-38
2022/09/05 03:24:13;;;;;;;;;;;;;;;26.52;34.63;101344.69;5043783;28;1914;-40
2022/09/05 03:26:45;;;;;;;;;;;;;;;26.25;34.40;101355.53;5055509;28;1207;-40
2022/09/05 03:29:20;;;;;;;;;;;;;;;26.25;35.07;101362.75;5052165;28;1013;-42
2022/09/05 03:32:00;;;;;;;;;;;;;;;26.17;34.67;101358.19;5041700;28;985;-42
2022/09/05 03:34:49;;;;;;;;;;;;;;;26.13;34.62;101365.75;5048056;28;1017;-41
2022/09/05 03:37:30;;;;;;;;;;;;;;;25.98;35.07;101362.81;5041938;28;1057;-41
2022/09/05 03:39:55;;;;;;;;;;;;;;;25.89;35.59;101364.59;5051089;28;1218;-42
2022/09/05 03:42:25;;;;;;;;;;;;;;;26.22;36.74;101374.72;5041163;28;1890;-38
2022/09/05 03:44:59;;;;;;;;;;;;;;;26.57;36.06;101379.25;5047946;28;984;-37
2022/09/05 03:47:30;;;;;;;;;;;;;;;26.61;36.04;101377.94;5042370;28;1000;-38
2022/09/05 03:49:59;;;;;;;;;;;;;;;26.70;35.61;101394.97;5051764;28;1474;-41
2022/09/05 03:52:43;;;;;;;;;;;;;;;26.75;35.39;101376.44;5048074;28;1184;-37
2022/09/05 03:55:28;;;;;;;;;;;;;;;26.72;34.52;101379.47;5038955;28;1267;-37
2022/09/05 03:58:00;;;;;;;;;;;;;;;26.81;34.58;101391.13;5048321;28;1412;-37
2022/09/05 04:00:29;;;;;;;;;;;;;;;26.67;34.39;101392.59;5049044;28;1334;-37
2022/09/05 04:02:54;;;;;;;;;;;;;;;26.69;34.45;101393.28;5045327;28;1886;-39
2022/09/05 04:05:24;;;;;;;;;;;;;;;26.78;33.87;101400.38;5054696;28;1211;-38
2022/09/05 04:07:52;;;;;;;;;;;;;;;26.80;34.53;101403.78;5050634;28;1296;-43
2022/09/05 04:10:31;;;;;;;;;;;;;;;26.86;34.65;101403.09;5050231;28;1311;-40
2022/09/05 04:12:58;;;;;;;;;;;;;;;26.92;34.87;101404.31;5049197;28;946;-41
2022/09/05 04:15:26;;;;;;;;;;;;;;;27.10;35.04;101404.22;5053450;28;974;-38
2022/09/05 04:17:53;;;;;;;;;;;;;;;27.16;35.09;101405.38;5044952;28;1087;-39
2022/09/05 04:20:27;;;;;;;;;;;;;;;27.17;35.19;101398.13;5049175;28;1250;-38
2022/09/05 04:23:11;;;;;;;;;;;;;;;27.10;35.45;101404.22;5045706;28;1902;-39
2022/09/05 04:25:46;;;;;;;;;;;;;;;27.13;35.56;101403.00;5056145;28;1141;-39
2022/09/05 04:28:25;;;;;;;;;;;;;;;27.17;35.33;101404.38;5046850;28;1206;-38
2022/09/05 04:30:52;;;;;;;;;;;;;;;27.14;35.30;101402.03;5052881;28;876;-37
2022/09/05 04:33:21;;;;;;;;;;;;;;;27.16;36.00;101397.28;5049970;28;1215;-37
2022/09/05 04:36:09;;;;;;;;;;;;;;;27.18;35.71;101402.50;5049786;28;895;-38
2022/09/05 04:38:57;;;;;;;;;;;;;;;27.22;36.21;101411.97;5054489;28;1057;-37
2022/09/05 04:41:24;;;;;;;;;;;;;;;27.28;35.96;101408.59;5010677;28;1318;-37
2022/09/05 04:43:56;;;;;;;;;;;;;;;27.33;35.81;101413.50;5041396;28;1910;-39
2022/09/05 04:46:21;;;;;;;;;;;;;;;27.31;35.99;101410.13;5049316;28;1001;-36
2022/09/05 04:48:52;;;;;;;;;;;;;;;27.43;35.88;101410.63;5048739;28;978;-39
2022/09/05 04:51:36;;;;;;;;;;;;;;;27.34;36.18;101405.22;5049389;28;1406;-38
2022/09/05 04:54:04;;;;;;;;;;;;;;;27.32;35.57;101412.66;5050402;28;1346;-38
2022/09/05 04:56:30;;;;;;;;;;;;;;;27.42;35.38;101420.59;5044327;28;1095;-36
2022/09/05 04:58:57;;;;;;;;;;;;;;;27.39;35.97;101421.75;5047529;28;864;-37
2022/09/05 05:01:25;;;;;;;;;;;;;;;27.35;36.09;101430.38;5055486;28;915;-37
2022/09/05 05:03:50;;;;;;;;;;;;;;;27.40;36.28;101433.44;5038236;28;1965;-36
2022/09/05 05:06:25;;;;;;;;;;;;;;;27.40;36.39;101436.13;5054583;28;1009;-38
2022/09/05 05:08:58;;;;;;;;;;;;;;;27.39;36.71;101442.56;5039036;28;1301;-38
2022/09/05 05:11:42;;;;;;;;;;;;;;;27.46;36.65;101446.25;5052841;28;1402;-38
2022/09/05 05:14:14;;;;;;;;;;;;;;;27.60;36.39;101444.75;5045295;28;1049;-38
2022/09/05 05:16:45;;;;;;;;;;;;;;;27.46;36.44;101446.25;5053604;28;977;-38
2022/09/05 05:19:25;;;;;;;;;;;;;;;27.47;36.20;101439.84;5053826;28;1056;-36
2022/09/05 05:21:52;;;;;;;;;;;;;;;27.57;35.89;101439.69;5055210;28;1220;-37
2022/09/05 05:24:19;;;;;;;;;;;;;;;27.61;36.25;101430.22;5045456;28;1974;-37
2022/09/05 05:26:56;;;;;;;;;;;;;;;27.54;37.03;101425.66;5051934;28;982;-37
2022/09/05 05:29:22;;;;;;;;;;;;;;;27.57;37.05;101425.31;5042316;28;1009;-37
2022/09/05 05:31:48;;;;;;;;;;;;;;;27.66;36.89;101423.47;5056024;28;1005;-37
2022/09/05 05:34:15;;;;;;;;;;;;;;;27.65;37.09;101427.16;5054916;28;1074;-38
2022/09/05 05:36:45;;;;;;;;;;;;;;;27.59;36.97;101426.00;5046101;28;1258;-37
2022/09/05 05:39:15;;;;;;;;;;;;;;;27.62;37.21;101429.22;5046384;28;1063;-37
2022/09/05 05:41:43;;;;;;;;;;;;;;;27.60;37.48;101427.69;5048584;28;1231;-37
2022/09/05 05:44:12;;;;;;;;;;;;;;;27.56;37.18;101424.47;5045506;28;1963;-37
2022/09/05 05:46:38;;;;;;;;;;;;;;;27.58;37.34;101424.28;5040740;28;1310;-36
2022/09/05 05:49:11;;;;;;;;;;;;;;;27.54;37.44;101431.91;5046207;28;1061;-38
2022/09/05 05:51:42;;;;;;;;;;;;;;;27.58;37.25;101421.59;5054107;28;1215;-37
2022/09/05 05:54:24;;;;;;;;;;;;;;;27.60;37.42;101433.09;5054417;28;1005;-37
2022/09/05 05:57:15;;;;;;;;;;;;;;;27.65;37.31;101428.00;5045620;28;1382;-38
2022/09/05 05:59:44;;;;;;;;;;;;;;;27.68;37.70;101437.63;5039669;28;1496;-39
2022/09/05 06:02:15;;;;;;;;;;;;;;;27.54;38.36;101436.47;5058831;28;969;-43
2022/09/05 06:04:55;;;;;;;;;;;;;;;27.66;38.03;101440.50;5058470;28;1898;-41
2022/09/05 06:07:42;;;;;;;;;;;;;;;27.95;37.94;101439.16;5058767;28;1422;-41
2022/09/05 06:10:18;;;;;;;;;;;;;;;27.97;37.13;101450.66;5054290;28;1151;-40
2022/09/05 06:13:02;;;;;;;;;;;;;;;27.83;37.94;101446.78;5053276;28;919;-39
2022/09/05 06:15:28;;;;;;;;;;;;;;;27.74;37.90;101455.94;5053389;28;1168;-39
2022/09/05 06:17:53;;;;;;;;;;;;;;;27.74;37.44;101459.44;5052865;28;1295;-38
2022/09/05 06:20:36;;;;;;;;;;;;;;;27.83;37.78;101468.41;5057943;28;1143;-37
2022/09/05 06:23:12;;;;;;;;;;;;;;;27.86;37.56;101468.06;5046673;28;1976;-38
2022/09/05 06:25:52;;;;;;;;;;;;;;;27.83;37.72;101465.72;5051964;28;1140;-38
2022/09/05 06:28:24;;;;;;;;;;;;;;;27.84;37.65;101471.97;5047180;28;982;-37
2022/09/05 06:30:49;;;;;;;;;;;;;;;27.78;37.88;101472.66;5058182;28;1178;-37
2022/09/05 06:33:20;;;;;;;;;;;;;;;27.78;38.00;101470.78;5050486;28;982;-39
2022/09/05 06:35:52;;;;;;;;;;;;;;;27.78;37.72;101494.28;5045898;28;1060;-37
2022/09/05 06:38:29;;;;;;;;;;;;;;;27.84;37.51;101493.59;5058464;28;1001;-38
2022/09/05 06:41:11;;;;;;;;;;;;;;;27.95;37.19;101486.97;5058028;28;1028;-40
2022/09/05 06:43:55;;;;;;;;;;;;;;;27.87;37.64;101496.81;5053253;28;1906;-38
2022/09/05 06:46:33;;;;;;;;;;;;;;;27.73;37.64;101497.47;5058083;28;1155;-38
2022/09/05 06:49:17;;;;;;;;;;;;;;;27.76;37.56;101502.53;5052224;28;1013;-39
2022/09/05 06:51:47;;;;;;;;;;;;;;;27.85;37.87;101503.38;5047511;28;981;-38
2022/09/05 06:54:15;;;;;;;;;;;;;;;27.87;37.79;101510.31;5056946;28;1045;-38
2022/09/05 06:56:59;;;;;;;;;;;;;;;27.86;37.56;101511.31;5057511;28;950;-36
2022/09/05 06:59:24;;;;;;;;;;;;;;;27.83;37.57;101519.78;5049361;28;1338;-38
2022/09/05 07:01:53;;;;;;;;;;;;;;;27.87;37.79;101520.28;5041166;28;1136;-38
2022/09/05 07:04:30;;;;;;;;;;;;;;;27.91;37.51;101524.31;5056643;28;1902;-38
2022/09/05 07:06:58;;;;;;;;;;;;;;;27.90;37.50;101529.91;5052600;28;1084;-39
2022/09/05 07:09:33;;;;;;;;;;;;;;;27.91;37.72;101526.22;5057955;28;985;-40
2022/09/05 07:12:06;;;;;;;;;;;;;;;27.99;37.16;101535.13;5046385;28;969;-39
2022/09/05 07:14:35;;;;;;;;;;;;;;;27.96;37.52;101535.47;5056340;28;1118;-38
2022/09/05 07:17:15;;;;;;;;;;;;;;;27.94;37.18;101526.72;5056662;28;1021;-40
2022/09/05 07:19:44;;;;;;;;;;;;;;;28.05;37.02;101539.03;5046321;28;1288;-40
2022/09/05 07:22:19;;;;;;;;;;;;;;;28.05;36.39;101539.03;5044438;28;948;-39
2022/09/05 07:24:44;;;;;;;;;;;;;;;28.15;35.76;101546.13;5052682;28;1906;-40
2022/09/05 07:27:10;;;;;;;;;;;;;;;28.06;36.60;101545.31;5051763;28;1263;-39
2022/09/05 07:29:38;;;;;;;;;;;;;;;28.01;36.16;101540.38;5039456;28;1113;-40
2022/09/05 07:32:05;;;;;;;;;;;;;;;28.03;36.15;101545.66;5056726;28;1083;-40
2022/09/05 07:34:30;;;;;;;;;;;;;;;28.08;36.43;101541.41;5056130;28;1120;-40
2022/09/05 07:36:56;;;;;;;;;;;;;;;28.18;36.65;101535.81;5046849;28;1153;-38
2022/09/05 07:39:26;;;;;;;;;;;;;;;28.23;36.50;101532.59;5048687;28;1037;-38
2022/09/05 07:41:52;;;;;;;;;;;;;;;28.28;36.59;101535.63;5056929;28;1215;-38
2022/09/05 07:44:23;;;;;;;;;;;;;;;28.40;36.25;101538.00;5054316;28;1935;-38
2022/09/05 07:46:53;;;;;;;;;;;;;;;28.41;35.87;101534.28;5056972;28;961;-38
2022/09/05 07:49:19;;;;;;;;;;;;;;;28.40;36.24;101532.56;5048849;28;1477;-39
2022/09/05 07:51:58;;;;;;;;;;;;;;;28.43;36.51;101526.81;5054167;28;949;-40
2022/09/05 07:54:27;;;;;;;;;;;;;;;28.41;35.86;101535.09;5048960;28;986;-40
2022/09/05 07:57:02;;;;;;;;;;;;;;;28.29;36.35;101525.66;5052681;28;1208;-38
2022/09/05 07:59:29;;;;;;;;;;;;;;;28.38;36.08;101527.34;5046313;28;1255;-40
2022/09/05 08:01:54;;;;;;;;;;;;;;;28.44;35.85;101536.66;5054463;28;1153;-39
2022/09/05 08:04:24;;;;;;;;;;;;;;;28.38;35.83;101527.34;5048675;28;1902;-39
2022/09/05 08:06:53;;;;;;;;;;;;;;;28.38;36.05;101527.34;5054423;28;1203;-40
2022/09/05 08:09:21;;;;;;;;;;;;;;;28.39;35.83;101529.06;5048100;28;982;-39
2022/09/05 08:11:47;;;;;;;;;;;;;;;28.51;35.50;101524.09;5056025;28;1210;-38
2022/09/05 08:14:35;;;;;;;;;;;;;;;28.34;36.09;101521.44;5041252;28;1154;-40
2022/09/05 08:17:00;;;;;;;;;;;;;;;28.33;36.21;101524.31;5004775;28;1512;-39
2022/09/05 08:19:29;;;;;;;;;;;;;;;28.47;36.22;101522.75;5044828;28;1291;-37
2022/09/05 08:21:54;;;;;;;;;;;;;;;28.48;36.02;101525.28;5048627;28;1067;-39
2022/09/05 08:24:19;;;;;;;;;;;;;;;28.41;35.83;101524.28;5048546;28;1918;-40
2022/09/05 08:26:49;;;;;;;;;;;;;;;28.29;36.30;101521.09;5044002;28;1006;-39
2022/09/05 08:29:20;;;;;;;;;;;;;;;28.35;35.83;101523.13;5043099;28;1184;-40
2022/09/05 08:31:55;;;;;;;;;;;;;;;28.35;35.84;101520.44;5040391;28;1716;-38
2022/09/05 08:34:22;;;;;;;;;;;;;;;28.29;35.88;101515.69;5052990;28;958;-39
2022/09/05 08:36:47;;;;;;;;;;;;;;;28.12;36.39;101517.56;5047720;28;1211;-43
2022/09/05 08:39:15;;;;;;;;;;;;;;;28.35;35.98;101522.28;5043404;28;1254;-38
2022/09/05 08:41:43;;;;;;;;;;;;;;;28.40;35.94;101519.03;5052791;28;997;-41
2022/09/05 08:44:15;;;;;;;;;;;;;;;28.47;35.43;101520.06;5055858;28;1893;-40
2022/09/05 08:46:40;;;;;;;;;;;;;;;28.57;35.60;101519.84;5050665;28;1088;-39
2022/09/05 08:49:24;;;;;;;;;;;;;;;28.53;35.52;101513.13;5055937;28;865;-40
2022/09/05 08:51:52;;;;;;;;;;;;;;;28.48;35.27;101519.88;5044360;28;1001;-40
2022/09/05 08:54:18;;;;;;;;;;;;;;;28.55;35.52;101533.56;5044801;28;1115;-39
2022/09/05 08:56:53;;;;;;;;;;;;;;;28.56;35.60;101529.81;5055484;28;1013;-41
2022/09/05 08:59:19;;;;;;;;;;;;;;;28.62;35.56;101525.59;5052209;28;1211;-38
2022/09/05 09:01:59;;;;;;;;;;;;;;;28.62;35.51;101520.19;5047992;28;961;-38
2022/09/05 09:04:54;;;;;;;;;;;;;;;28.70;35.25;101513.88;5055456;28;1951;-37
2022/09/05 09:07:34;;;;;;;;;;;;;;;28.66;35.27;101520.69;5034275;28;1287;-41
2022/09/05 09:09:59;;;;;;;;;;;;;;;28.71;35.30;101513.69;5054668;28;1113;-41
2022/09/05 09:12:39;;;;;;;;;;;;;;;28.83;35.07;101516.88;5055147;28;943;-41
2022/09/05 09:15:17;;;;;;;;;;;;;;;28.87;35.00;101511.09;5053312;28;1211;-41
2022/09/05 09:17:43;;;;;;;;;;;;;;;28.87;35.06;101514.66;5054229;28;1118;-41
2022/09/05 09:20:27;;;;;;;;;;;;;;;28.94;35.00;101518.38;5055382;28;1151;-40
2022/09/05 09:22:54;;;;;;;;;;;;;;;28.96;34.85;101513.59;5044382;28;1909;-41
2022/09/05 09:25:27;;;;;;;;;;;;;;;28.95;34.92;101508.34;5042797;28;989;-39
2022/09/05 09:27:55;;;;;;;;;;;;;;;28.96;34.80;101518.19;5051130;28;1168;-42
2022/09/05 09:30:21;;;;;;;;;;;;;;;28.91;34.05;101507.84;5051592;28;1311;-43
2022/09/05 09:32:47;;;;;;;;;;;;;;;28.80;33.71;101506.41;5055894;28;1013;-44
2022/09/05 09:35:18;;;;;;;;;;;;;;;28.91;36.62;101499.72;5056643;28;965;-42
2022/09/05 09:37:56;;;;;;;;;;;;;;;28.98;38.08;101490.94;5058143;28;859;-43
2022/09/05 09:40:40;;;;;;;;;;;;;;;29.14;37.31;101490.00;5058429;28;1025;-42
2022/09/05 09:43:13;;;;;;;;;;;;;;;28.66;37.27;101499.03;5057146;28;1890;-44
2022/09/05 09:45:52;;;;;;;;;;;;;;;28.21;33.53;101486.75;5045484;28;1203;-47
2022/09/05 09:48:29;;;;;;;;;;;;;;;28.22;34.07;101488.47;5055136;28;1188;-44
2022/09/05 09:50:54;;;;;;;;;;;;;;;28.27;34.60;101492.50;5049817;28;1512;-42
2022/09/05 09:53:20;;;;;;;;;;;;;;;28.27;37.10;101501.47;5058293;28;1017;-42
2022/09/05 09:55:45;;;;;;;;;;;;;;;28.24;33.59;101493.72;5047826;28;962;-42
2022/09/05 09:58:30;;;;;;;;;;;;;;;28.29;33.52;101490.47;5059282;28;980;-42
2022/09/05 10:01:13;;;;;;;;;;;;;;;28.52;34.25;101490.59;5052874;28;985;-44
2022/09/05 10:03:41;;;;;;;;;;;;;;;28.42;35.47;101490.81;5051256;28;1894;-43
2022/09/05 10:06:06;;;;;;;;;;;;;;;28.46;32.74;101494.03;5059033;28;1071;-43
2022/09/05 10:08:38;;;;;;;;;;;;;;;28.22;31.28;101485.75;5057145;28;1139;-44
2022/09/05 10:11:12;;;;;;;;;;;;;;;28.40;31.20;101489.28;5047566;28;1041;-45
2022/09/05 10:13:46;;;;;;;;;;;;;;;28.66;32.05;101489.00;5054359;28;994;-44
2022/09/05 10:16:30;;;;;;;;;;;;;;;28.90;30.05;101489.06;5058507;28;973;-42
2022/09/05 10:19:14;;;;;;;;;;;;;;;28.84;30.36;101486.06;5057205;28;1434;-41
2022/09/05 10:21:57;;;;;;;;;;;;;;;28.90;31.84;101487.22;5048076;28;1573;-42
2022/09/05 10:24:22;;;;;;;;;;;;;;;28.56;31.90;101483.81;5047600;28;1902;-40
2022/09/05 10:27:06;;;;;;;;;;;;;;;28.52;30.08;101487.06;5054317;28;989;-41
2022/09/05 10:29:43;;;;;;;;;;;;;;;28.54;30.91;101485.03;5046918;28;1069;-43
2022/09/05 10:32:12;;;;;;;;;;;;;;;28.44;32.88;101485.22;5058408;28;997;-43
2022/09/05 10:34:46;;;;;;;;;;;;;;;28.36;32.56;101475.28;5056740;28;994;-44
2022/09/05 10:37:12;;;;;;;;;;;;;;;28.53;31.40;101472.53;5056352;28;1154;-45
2022/09/05 10:39:38;;;;;;;;;;;;;;;28.36;33.11;101483.41;5049618;28;999;-43
2022/09/05 10:42:05;;;;;;;;;;;;;;;28.22;32.81;101474.09;5058558;28;1159;-43
2022/09/05 10:44:42;;;;;;;;;;;;;;;28.35;32.53;101478.97;5056932;28;1962;-43
2022/09/05 10:47:13;;;;;;;;;;;;;;;28.04;33.33;101472.44;5055318;28;1307;-42
2022/09/05 10:49:43;;;;;;;;;;;;;;;27.99;33.80;101474.81;5050258;28;876;-45
2022/09/05 10:52:13;;;;;;;;;;;;;;;27.75;34.24;101474.69;5047111;28;1238;-43
2022/09/05 10:54:38;;;;;;;;;;;;;;;27.60;34.79;101477.19;5050186;28;1136;-45
2022/09/05 10:57:22;;;;;;;;;;;;;;;27.41;35.07;101481.03;5053395;28;1108;-44
2022/09/05 11:00:02;;;;;;;;;;;;;;;27.09;35.33;101478.09;5057653;28;922;-43
2022/09/05 11:02:28;;;;;;;;;;;;;;;27.02;35.78;101482.50;5050304;28;1048;-44
2022/09/05 11:05:16;;;;;;;;;;;;;;;27.55;34.37;101474.13;5050600;28;1894;-42
2022/09/05 11:07:44;;;;;;;;;;;;;;;27.68;34.58;101479.06;5057228;28;1163;-43
2022/09/05 11:10:11;;;;;;;;;;;;;;;27.58;34.46;101479.19;5057539;28;1017;-42
2022/09/05 11:12:39;;;;;;;;;;;;;;;27.55;34.79;101482.25;5055934;28;1180;-43
2022/09/05 11:15:05;;;;;;;;;;;;;;;27.54;34.89;101474.31;5053232;28;1187;-44
2022/09/05 11:17:35;;;;;;;;;;;;;;;27.55;34.53;101478.69;5057407;28;1179;-43
2022/09/05 11:20:19;;;;;;;;;;;;;;;27.51;34.46;101481.72;5049408;28;1128;-44
2022/09/05 11:22:45;;;;;;;;;;;;;;;27.42;34.66;101479.19;5051575;28;1911;-42
2022/09/05 11:25:14;;;;;;;;;;;;;;;26.62;34.53;101371.53;5038427;28;1045;-43
2022/09/05 11:27:40;;;;;;;;;;;;;;;27.64;34.08;101477.69;5046923;28;1390;-42
2022/09/05 11:30:09;;;;;;;;;;;;;;;27.59;34.47;101471.94;5051411;28;1285;-43
2022/09/05 11:32:48;;;;;;;;;;;;;;;27.49;34.05;101472.13;5049381;28;1166;-43
2022/09/05 11:35:17;;;;;;;;;;;;;;;27.51;34.36;101470.91;5052857;28;994;-41
2022/09/05 11:37:42;;;;;;;;;;;;;;;27.45;34.12;101474.28;5052735;28;803;-40
2022/09/05 11:40:26;;;;;;;;;;;;;;;27.33;34.20;101467.50;5056923;28;1044;-43
2022/09/05 11:42:52;;;;;;;;;;;;;;;27.54;34.06;101468.91;5045394;28;1955;-42
2022/09/05 11:45:40;;;;;;;;;;;;;;;27.54;33.98;101480.56;5052650;28;1261;-41
2022/09/05 11:48:25;;;;;;;;;;;;;;;27.48;33.84;101471.25;5037000;28;1352;-43
2022/09/05 11:50:53;;;;;;;;;;;;;;;27.50;34.10;101479.19;5053541;28;1179;-41
2022/09/05 11:53:39;;;;;;;;;;;;;;;27.56;33.91;101480.41;5042519;28;1061;-41
2022/09/05 11:56:14;;;;;;;;;;;;;;;27.29;34.28;101477.84;5050271;28;1235;-42
2022/09/05 11:59:01;;;;;;;;;;;;;;;27.37;34.19;101474.28;5055991;28;1013;-43
2022/09/05 12:01:27;;;;;;;;;;;;;;;27.91;33.21;101472.94;5047142;28;946;-41
2022/09/05 12:04:10;;;;;;;;;;;;;;;27.98;32.87;101467.72;5048036;28;1890;-39
2022/09/05 12:06:46;;;;;;;;;;;;;;;28.05;33.14;101465.16;5048811;28;1208;-40
2022/09/05 12:09:31;;;;;;;;;;;;;;;28.27;33.40;101474.41;5049527;28;993;-40
2022/09/05 12:12:06;;;;;;;;;;;;;;;28.38;32.60;101467.81;5044380;28;1257;-41
2022/09/05 12:14:53;;;;;;;;;;;;;;;28.32;32.56;101472.03;5039598;28;1040;-39
2022/09/05 12:17:30;;;;;;;;;;;;;;;28.28;32.62;101464.44;5043168;28;1432;-40
2022/09/05 12:19:55;;;;;;;;;;;;;;;28.23;32.67;101471.22;5050013;28;1228;-41
2022/09/05 12:22:23;;;;;;;;;;;;;;;28.29;32.73;101476.94;5046274;28;1294;-40
2022/09/05 12:25:07;;;;;;;;;;;;;;;28.27;32.69;101477.13;5043292;28;1972;-40
2022/09/05 12:27:35;;;;;;;;;;;;;;;28.21;32.97;101477.81;5047355;28;1242;-40
2022/09/05 12:30:10;;;;;;;;;;;;;;;28.24;32.66;101478.31;5045726;28;1193;-39
2022/09/05 12:32:48;;;;;;;;;;;;;;;28.31;32.76;101478.44;5044659;28;1204;-41
2022/09/05 12:35:43;;;;;;;;;;;;;;;28.17;32.75;101471.06;5044624;28;1152;-42
2022/09/05 12:38:27;;;;;;;;;;;;;;;28.26;32.70;101472.72;5039496;28;1424;-42
2022/09/05 12:40:56;;;;;;;;;;;;;;;28.18;32.98;101467.31;5044650;28;1199;-42
2022/09/05 12:43:23;;;;;;;;;;;;;;;28.27;32.82;101465.44;5041225;28;1894;-42
2022/09/05 12:45:54;;;;;;;;;;;;;;;28.23;32.76;101470.34;5052886;28;1188;-42
2022/09/05 12:48:28;;;;;;;;;;;;;;;28.19;33.08;101471.75;5044929;28;1248;-38
2022/09/05 12:50:59;;;;;;;;;;;;;;;28.17;32.54;101462.94;5041386;28;1370;-41
2022/09/05 12:53:24;;;;;;;;;;;;;;;28.15;32.64;101465.81;5054511;28;970;-42
2022/09/05 12:56:14;;;;;;;;;;;;;;;28.23;32.60;101462.25;5054311;28;1068;-40
2022/09/05 12:58:40;;;;;;;;;;;;;;;28.29;32.51;101460.72;5046445;28;1131;-39
2022/09/05 13:01:23;;;;;;;;;;;;;;;28.21;32.12;101454.31;5045406;28;1191;-41
2022/09/05 13:03:52;;;;;;;;;;;;;;;28.27;32.33;101452.78;5049724;28;1901;-41
2022/09/05 13:06:37;;;;;;;;;;;;;;;28.32;32.60;101450.41;5052187;28;1108;-43
2022/09/05 13:09:04;;;;;;;;;;;;;;;28.38;32.43;101459.69;5055687;28;1131;-41
2022/09/05 13:11:31;;;;;;;;;;;;;;;28.38;32.35;101457.00;5041717;28;1010;-42
2022/09/05 13:13:59;;;;;;;;;;;;;;;28.07;32.18;101450.47;5044596;28;990;-41
2022/09/05 13:16:24;;;;;;;;;;;;;;;28.13;32.16;101458.91;5053639;28;1145;-41
2022/09/05 13:18:51;;;;;;;;;;;;;;;28.17;32.39;101454.81;5041594;28;1176;-42
2022/09/05 13:21:18;;;;;;;;;;;;;;;28.13;32.31;101450.78;5042049;28;1240;-42